createdAt,value
2022-08-26T00:00:13.656Z,96.60
2022-08-26T00:02:46.163Z,96.50
2022-08-26T00:05:18.831Z,96.90
2022-08-26T00:07:51.229Z,97.10
2022-08-26T00:10:24.016Z,96.50
2022-08-26T00:12:58.304Z,97.10
2022-08-26T00:15:31.117Z,97.50
2022-08-26T00:18:02.970Z,97.10
2022-08-26T00:20:37.215Z,97.70
2022-08-26T00:23:09.430Z,97.10
2022-08-26T00:25:42.546Z,97.90
2022-08-26T00:28:15.141Z,98.00
2022-08-26T00:31:13.120Z,97.10
2022-08-26T00:33:45.254Z,97.00
2022-08-26T00:36:20.404Z,97.80
2022-08-26T00:38:52.367Z,97.90
2022-08-26T00:41:24.938Z,97.20
2022-08-26T00:43:57.928Z,97.70
2022-08-26T00:46:31.585Z,97.80
2022-08-26T00:49:11.837Z,97.20
2022-08-26T00:51:46.051Z,98.10
2022-08-26T00:54:20.652Z,98.00
2022-08-26T00:56:57.639Z,98.40
2022-08-26T00:59:33.261Z,98.00
2022-08-26T01:02:05.048Z,98.50
2022-08-26T01:04:38.827Z,98.30
2022-08-26T01:07:10.569Z,99.00
2022-08-26T01:09:43.098Z,98.90
2022-08-26T01:12:16.455Z,98.00
2022-08-26T01:14:55.283Z,98.40
2022-08-26T01:17:26.988Z,99.00
2022-08-26T01:20:03.606Z,99.10
2022-08-26T01:22:44.616Z,99.80
2022-08-26T01:25:17.450Z,99.90
2022-08-26T01:27:50.762Z,99.90
2022-08-26T01:30:22.957Z,99.90
2022-08-26T01:32:56.407Z,99.80
2022-08-26T01:35:29.810Z,99.90
2022-08-26T01:38:02.658Z,99.80
2022-08-26T01:40:37.149Z,99.90
2022-08-26T01:43:15.157Z,99.70
2022-08-26T01:45:48.079Z,99.90
2022-08-26T01:48:22.985Z,99.70
2022-08-26T01:50:56.170Z,99.90
2022-08-26T01:53:28.552Z,99.80
2022-08-26T01:56:01.002Z,99.90
2022-08-26T01:58:40.125Z,99.90
2022-08-26T02:01:12.298Z,99.90
2022-08-26T02:04:05.123Z,99.90
2022-08-26T02:06:37.803Z,99.90
2022-08-26T02:09:10.454Z,99.90
2022-08-26T02:11:42.141Z,99.90
2022-08-26T02:14:19.645Z,99.90
2022-08-26T02:16:52.230Z,99.90
2022-08-26T02:19:29.822Z,99.90
2022-08-26T02:22:03.467Z,99.90
2022-08-26T02:24:49.792Z,99.90
2022-08-26T02:27:28.130Z,99.90
2022-08-26T02:30:13.435Z,99.90
2022-08-26T02:32:46.321Z,99.90
2022-08-26T02:35:23.567Z,99.90
2022-08-26T02:37:56.095Z,99.90
2022-08-26T02:40:32.147Z,99.90
2022-08-26T02:43:05.048Z,99.90
2022-08-26T02:45:41.177Z,99.90
2022-08-26T02:48:15.828Z,99.90
2022-08-26T02:50:49.339Z,99.90
2022-08-26T02:53:25.229Z,99.90
2022-08-26T02:55:57.755Z,99.90
2022-08-26T02:58:31.704Z,99.90
2022-08-26T03:01:04.934Z,99.90
2022-08-26T03:03:37.085Z,99.90
2022-08-26T03:06:09.573Z,99.90
2022-08-26T03:08:41.694Z,99.90
2022-08-26T03:11:14.280Z,99.90
2022-08-26T03:13:47.528Z,99.90
2022-08-26T03:16:19.767Z,99.90
2022-08-26T03:18:52.630Z,99.90
2022-08-26T03:21:25.361Z,99.90
2022-08-26T03:23:58.722Z,99.90
2022-08-26T03:26:31.755Z,99.90
2022-08-26T03:29:42.435Z,99.90
2022-08-26T03:32:17.274Z,99.90
2022-08-26T03:34:49.021Z,99.90
2022-08-26T03:37:22.497Z,99.90
2022-08-26T03:39:54.239Z,99.90
2022-08-26T03:42:27.009Z,99.90
2022-08-26T03:44:59.141Z,99.90
2022-08-26T03:47:31.724Z,99.90
2022-08-26T03:50:05.807Z,99.90
2022-08-26T03:52:43.049Z,99.90
2022-08-26T03:55:15.717Z,99.90
2022-08-26T03:57:48.391Z,99.90
2022-08-26T04:00:20.998Z,99.90
2022-08-26T04:02:53.321Z,99.90
2022-08-26T04:05:26.109Z,99.90
2022-08-26T04:08:00.062Z,99.90
2022-08-26T04:10:32.712Z,99.90
2022-08-26T04:13:04.880Z,99.90
2022-08-26T04:15:37.053Z,99.90
2022-08-26T04:18:10.410Z,99.90
2022-08-26T04:20:42.750Z,99.90
2022-08-26T04:23:14.825Z,99.90
2022-08-26T04:25:49.903Z,99.90
2022-08-26T04:28:22.869Z,99.90
2022-08-26T04:30:56.381Z,99.90
2022-08-26T04:33:32.391Z,99.90
2022-08-26T04:36:06.198Z,99.90
2022-08-26T04:38:37.953Z,99.90
2022-08-26T04:41:14.931Z,99.90
2022-08-26T04:43:48.773Z,99.90
2022-08-26T04:46:22.754Z,99.90
2022-08-26T04:48:55.549Z,99.90
2022-08-26T04:51:28.148Z,99.90
2022-08-26T04:54:00.974Z,99.90
2022-08-26T04:56:34.378Z,99.90
2022-08-26T04:59:16.516Z,99.90
2022-08-26T05:01:51.723Z,99.90
2022-08-26T05:04:23.621Z,99.90
2022-08-26T05:07:02.354Z,99.90
2022-08-26T05:09:35.125Z,99.90
2022-08-26T05:12:07.413Z,99.90
2022-08-26T05:14:41.897Z,99.90
2022-08-26T05:17:15.295Z,99.90
2022-08-26T05:19:48.393Z,99.90
2022-08-26T05:22:21.696Z,99.90
2022-08-26T05:24:55.447Z,99.90
2022-08-26T05:27:27.604Z,99.90
2022-08-26T05:29:59.867Z,99.90
2022-08-26T05:32:33.681Z,99.90
2022-08-26T05:35:08.891Z,99.90
2022-08-26T05:37:40.842Z,99.90
2022-08-26T05:40:13.590Z,99.90
2022-08-26T05:42:47.844Z,99.90
2022-08-26T05:45:20.374Z,99.90
2022-08-26T05:47:52.062Z,99.90
2022-08-26T05:50:25.585Z,99.90
2022-08-26T05:52:59.058Z,99.90
2022-08-26T05:55:33.581Z,99.90
2022-08-26T05:58:06.225Z,99.90
2022-08-26T06:00:38.222Z,99.90
2022-08-26T06:03:11.003Z,99.90
2022-08-26T06:05:43.343Z,99.90
2022-08-26T06:08:17.545Z,99.90
2022-08-26T06:10:53.476Z,99.90
2022-08-26T06:13:27.287Z,99.90
2022-08-26T06:16:04.361Z,99.90
2022-08-26T06:18:45.233Z,99.90
2022-08-26T06:21:21.926Z,99.90
2022-08-26T06:24:14.212Z,99.90
2022-08-26T06:26:50.352Z,99.90
2022-08-26T06:29:24.860Z,99.90
2022-08-26T06:31:58.403Z,99.90
2022-08-26T06:34:31.042Z,99.90
2022-08-26T06:37:03.517Z,99.90
2022-08-26T06:39:36.193Z,99.90
2022-08-26T06:42:13.594Z,99.90
2022-08-26T06:44:47.158Z,99.90
2022-08-26T06:47:20.472Z,99.90
2022-08-26T06:49:55.661Z,99.90
2022-08-26T06:52:27.463Z,99.90
2022-08-26T06:54:59.996Z,99.90
2022-08-26T06:57:32.947Z,99.90
2022-08-26T07:00:16.522Z,99.90
2022-08-26T07:02:54.189Z,99.90
2022-08-26T07:05:26.793Z,99.90
2022-08-26T07:07:58.666Z,99.90
2022-08-26T07:12:01.602Z,99.90
2022-08-26T07:14:34.571Z,99.90
2022-08-26T07:17:11.071Z,99.90
2022-08-26T07:19:47.136Z,99.90
2022-08-26T07:22:19.010Z,99.90
2022-08-26T07:24:51.754Z,99.90
2022-08-26T07:27:24.497Z,99.90
2022-08-26T07:29:57.283Z,99.90
2022-08-26T07:32:30.841Z,99.90
2022-08-26T07:35:03.826Z,99.90
2022-08-26T07:37:39.223Z,99.90
2022-08-26T07:40:12.289Z,99.90
2022-08-26T07:42:44.884Z,99.90
2022-08-26T07:45:18.121Z,99.30
2022-08-26T07:47:51.199Z,97.90
2022-08-26T07:50:49.451Z,95.40
2022-08-26T07:53:17.937Z,93.70
2022-08-26T07:55:51.790Z,93.00
2022-08-26T07:58:24.509Z,92.10
2022-08-26T08:00:58.270Z,91.80
2022-08-26T08:03:30.825Z,91.70
2022-08-26T08:06:03.899Z,91.70
2022-08-26T08:08:37.473Z,91.40
2022-08-26T08:11:09.993Z,89.30
2022-08-26T08:13:43.813Z,87.20
2022-08-26T08:16:15.855Z,88.00
2022-08-26T08:18:49.038Z,85.00
2022-08-26T08:21:23.622Z,84.60
2022-08-26T08:23:57.857Z,86.50
2022-08-26T08:26:29.749Z,85.10
2022-08-26T08:29:02.367Z,87.40
2022-08-26T08:34:29.563Z,88.10
2022-08-26T08:37:01.539Z,89.20
2022-08-26T08:39:36.265Z,91.00
2022-08-26T08:42:36.279Z,91.20
2022-08-26T08:45:12.931Z,91.20
2022-08-26T08:47:54.093Z,91.40
2022-08-26T08:50:44.990Z,91.10
2022-08-26T08:53:39.521Z,90.90
2022-08-26T08:56:34.860Z,91.00
2022-08-26T08:59:18.136Z,90.80
2022-08-26T09:01:59.788Z,90.60
2022-08-26T09:05:15.439Z,90.10
2022-08-26T09:07:54.237Z,88.50
2022-08-26T09:10:31.659Z,88.50
2022-08-26T09:13:16.345Z,88.80
2022-08-26T09:16:04.707Z,88.20
2022-08-26T09:18:36.859Z,89.00
2022-08-26T09:21:13.301Z,90.50
2022-08-26T09:23:49.460Z,90.30
2022-08-26T09:26:29.289Z,90.30
2022-08-26T09:29:05.949Z,90.30
2022-08-26T09:31:42.266Z,90.10
2022-08-26T09:34:28.548Z,90.50
2022-08-26T09:37:00.671Z,90.70
2022-08-26T09:39:38.907Z,90.60
2022-08-26T09:42:25.419Z,90.40
2022-08-26T09:45:02.120Z,90.00
2022-08-26T09:47:39.177Z,89.80
2022-08-26T09:50:30.004Z,90.00
2022-08-26T09:53:28.659Z,90.10
2022-08-26T09:56:17.647Z,89.50
2022-08-26T09:58:50.379Z,89.70
2022-08-26T10:01:23.805Z,89.60
2022-08-26T10:04:08.927Z,89.60
2022-08-26T10:07:03.528Z,89.60
2022-08-26T10:09:40.546Z,88.40
2022-08-26T10:12:21.920Z,88.00
2022-08-26T10:15:03.365Z,87.70
2022-08-26T10:17:49.193Z,88.40
2022-08-26T10:20:26.409Z,87.40
2022-08-26T10:23:07.823Z,86.70
2022-08-26T10:26:05.763Z,86.50
2022-08-26T10:28:57.944Z,86.60
2022-08-26T10:31:40.964Z,86.90
2022-08-26T10:34:14.546Z,87.00
2022-08-26T10:37:13.948Z,87.70
2022-08-26T10:40:18.424Z,86.60
2022-08-26T10:42:56.585Z,86.70
2022-08-26T10:45:32.780Z,86.40
2022-08-26T10:48:18.249Z,86.50
2022-08-26T10:50:50.770Z,87.10
2022-08-26T10:53:32.872Z,87.50
2022-08-26T10:56:15.694Z,87.50
2022-08-26T10:59:10.409Z,87.20
2022-08-26T11:02:06.832Z,87.60
2022-08-26T11:04:52.173Z,86.90
2022-08-26T11:07:46.951Z,87.20
2022-08-26T11:10:25.197Z,86.80
2022-08-26T11:13:07.372Z,89.00
2022-08-26T11:15:39.277Z,86.90
2022-08-26T11:18:32.932Z,86.30
2022-08-26T11:21:45.222Z,86.80
2022-08-26T11:24:57.336Z,86.10
2022-08-26T11:27:35.411Z,86.80
2022-08-26T11:30:13.641Z,86.80
2022-08-26T11:32:58.686Z,86.30
2022-08-26T11:35:37.551Z,87.10
2022-08-26T11:38:15.150Z,86.50
2022-08-26T11:41:16.581Z,85.80
2022-08-26T11:43:51.967Z,87.30
2022-08-26T11:46:27.896Z,87.20
2022-08-26T11:49:06.052Z,86.80
2022-08-26T11:51:40.906Z,88.00
2022-08-26T11:54:22.847Z,87.80
2022-08-26T11:57:13.406Z,89.70
2022-08-26T11:59:46.056Z,88.80
2022-08-26T12:02:19.735Z,89.80
2022-08-26T12:04:54.395Z,87.90
2022-08-26T12:07:29.194Z,88.60
2022-08-26T12:10:04.613Z,89.60
2022-08-26T12:12:39.353Z,90.00
2022-08-26T12:15:14.034Z,89.60
2022-08-26T12:17:52.966Z,88.30
2022-08-26T12:20:49.635Z,87.80
2022-08-26T12:23:22.457Z,86.90
2022-08-26T12:26:11.001Z,86.70
2022-08-26T12:28:58.453Z,88.10
2022-08-26T12:31:38.151Z,86.70
2022-08-26T12:34:18.114Z,85.90
2022-08-26T12:36:56.744Z,85.60
2022-08-26T12:39:37.214Z,84.90
2022-08-26T12:42:17.971Z,85.90
2022-08-26T12:45:07.073Z,85.00
2022-08-26T12:47:46.187Z,84.40
2022-08-26T12:50:23.685Z,85.40
2022-08-26T12:53:12.001Z,86.30
2022-08-26T12:56:03.624Z,85.60
2022-08-26T12:58:38.585Z,84.00
2022-08-26T13:01:10.464Z,84.10
2022-08-26T13:03:45.878Z,83.60
2022-08-26T13:06:37.560Z,84.00
2022-08-26T13:09:09.712Z,85.10
2022-08-26T13:11:42.794Z,85.80
2022-08-26T13:14:23.772Z,84.40
2022-08-26T13:16:58.229Z,84.40
2022-08-26T13:19:30.850Z,84.20
2022-08-26T13:22:08.016Z,84.50
2022-08-26T13:24:44.482Z,83.70
2022-08-26T13:27:21.117Z,84.10
2022-08-26T13:29:55.081Z,83.80
2022-08-26T13:32:28.803Z,84.70
2022-08-26T13:35:05.510Z,84.30
2022-08-26T13:37:40.311Z,84.50
2022-08-26T13:40:14.477Z,84.30
2022-08-26T13:42:49.563Z,83.70
2022-08-26T13:45:24.213Z,83.80
2022-08-26T13:47:57.867Z,83.80
2022-08-26T13:50:29.960Z,83.90
2022-08-26T13:53:03.883Z,84.20
2022-08-26T13:55:36.515Z,83.50
2022-08-26T13:58:13.293Z,83.90
2022-08-26T14:00:47.135Z,83.20
2022-08-26T14:03:24.315Z,83.90
2022-08-26T14:05:56.965Z,83.50
2022-08-26T14:08:29.541Z,83.80
2022-08-26T16:44:28.083Z,94.70
2022-08-26T16:47:03.149Z,94.60
2022-08-26T16:49:37.872Z,94.80
2022-08-26T16:52:10.749Z,95.80
2022-08-26T16:54:45.781Z,96.80
2022-08-26T16:57:18.384Z,97.10
2022-08-26T16:59:51.387Z,97.50
2022-08-26T17:02:23.677Z,98.30
2022-08-26T17:04:57.531Z,98.60
2022-08-26T17:07:30.562Z,98.70
2022-08-26T17:10:02.795Z,98.90
2022-08-26T17:12:36.598Z,99.10
2022-08-26T17:15:09.326Z,99.20
2022-08-26T17:17:42.305Z,99.80
2022-08-26T17:20:17.065Z,99.90
2022-08-26T17:22:50.752Z,99.90
2022-08-26T17:25:26.629Z,99.90
2022-08-26T17:27:59.361Z,99.90
2022-08-26T17:30:31.244Z,99.90
2022-08-26T17:33:10.896Z,99.90
2022-08-26T17:35:42.956Z,99.90
2022-08-26T17:38:15.584Z,99.90
2022-08-26T17:40:47.876Z,99.90
2022-08-26T17:43:19.793Z,99.90
2022-08-26T17:45:57.038Z,99.90
2022-08-26T17:48:30.795Z,99.90
2022-08-26T17:51:12.925Z,99.90
2022-08-26T17:53:45.269Z,99.90
2022-08-26T17:56:21.415Z,99.90
2022-08-26T17:58:57.597Z,99.90
2022-08-26T18:01:35.050Z,99.90
2022-08-26T18:04:07.317Z,99.90
2022-08-26T18:06:41.062Z,99.90
2022-08-26T18:09:13.122Z,99.90
2022-08-26T18:11:45.626Z,99.90
2022-08-26T18:14:17.414Z,99.90
2022-08-26T18:16:51.230Z,99.90
2022-08-26T18:19:23.067Z,99.90
2022-08-26T18:21:55.505Z,99.90
2022-08-26T18:24:30.304Z,99.90
2022-08-26T18:27:02.706Z,99.90
2022-08-26T18:29:34.688Z,99.90
2022-08-26T18:32:07.102Z,99.90
2022-08-26T18:34:40.411Z,99.90
2022-08-26T18:39:51.049Z,99.90
2022-08-26T18:42:24.284Z,99.90
2022-08-26T18:44:56.139Z,99.90
2022-08-26T18:47:28.813Z,99.90
2022-08-26T18:50:01.634Z,99.90
2022-08-26T18:52:34.015Z,99.90
2022-08-26T18:55:06.382Z,99.90
2022-08-26T18:57:38.729Z,99.90
2022-08-26T19:00:11.505Z,99.90
2022-08-26T19:02:43.977Z,99.90
2022-08-26T19:05:25.447Z,99.90
2022-08-26T19:07:57.917Z,99.90
2022-08-26T19:10:30.128Z,99.90
2022-08-26T19:13:02.808Z,99.90
2022-08-26T19:15:41.655Z,99.90
2022-08-26T19:18:15.108Z,99.90
2022-08-26T19:20:47.892Z,99.90
2022-08-26T19:23:31.329Z,99.90
2022-08-26T19:26:05.965Z,99.90
2022-08-26T19:28:43.066Z,99.90
2022-08-26T19:31:15.594Z,99.90
2022-08-26T19:33:48.096Z,99.90
2022-08-26T19:36:23.431Z,99.90
2022-08-26T19:38:57.098Z,99.90
2022-08-26T19:41:37.183Z,99.90
2022-08-26T19:44:13.424Z,99.90
2022-08-26T19:46:45.177Z,99.90
2022-08-26T19:49:17.520Z,99.90
2022-08-26T19:51:49.975Z,99.90
2022-08-26T19:54:25.510Z,99.90
2022-08-26T19:56:57.369Z,99.90
2022-08-26T19:59:29.746Z,99.90
2022-08-26T20:02:03.050Z,99.90
2022-08-26T20:04:36.505Z,99.90
2022-08-26T20:07:09.492Z,99.90
2022-08-26T20:09:42.100Z,99.90
2022-08-26T20:12:15.313Z,99.90
2022-08-26T20:14:47.891Z,99.90
2022-08-26T20:17:20.023Z,99.90
2022-08-26T20:20:26.864Z,99.90
2022-08-26T20:23:04.354Z,99.90
2022-08-26T20:25:36.792Z,99.90
2022-08-26T20:28:09.114Z,99.90
2022-08-26T20:30:41.708Z,99.90
2022-08-26T20:33:13.515Z,99.90
2022-08-26T20:35:45.955Z,99.90
2022-08-26T20:38:21.459Z,99.90
2022-08-26T20:40:54.205Z,99.90
2022-08-26T20:43:28.442Z,99.90
2022-08-26T20:46:01.404Z,99.90
2022-08-26T20:48:33.284Z,99.90
2022-08-26T20:51:06.357Z,99.90
2022-08-26T20:53:38.534Z,99.90
2022-08-26T20:56:13.006Z,99.90
2022-08-26T20:58:44.825Z,99.90
2022-08-26T21:01:26.256Z,99.90
2022-08-26T21:03:58.096Z,99.90
2022-08-26T21:06:31.142Z,99.90
2022-08-26T21:09:06.577Z,99.90
2022-08-26T21:11:40.398Z,99.90
2022-08-26T21:14:16.091Z,99.90
2022-08-26T21:16:50.122Z,99.90
2022-08-26T21:19:21.991Z,99.90
2022-08-26T21:21:54.387Z,99.90
2022-08-26T21:24:26.272Z,99.90
2022-08-26T21:26:58.799Z,99.90
2022-08-26T21:29:30.634Z,99.90
2022-08-26T21:32:03.435Z,99.90
2022-08-26T21:34:35.372Z,99.90
2022-08-26T21:37:15.363Z,99.90
2022-08-26T21:39:56.247Z,99.90
2022-08-26T21:42:33.246Z,99.90
2022-08-26T21:45:06.161Z,99.90
2022-08-26T21:47:38.583Z,99.90
2022-08-26T21:50:10.434Z,99.90
2022-08-26T21:52:42.764Z,99.90
2022-08-26T21:55:14.541Z,99.90
2022-08-26T21:57:47.002Z,99.90
2022-08-26T22:00:19.474Z,99.90
2022-08-26T22:02:51.870Z,99.90
2022-08-26T22:05:23.693Z,99.90
2022-08-26T22:07:56.156Z,99.90
2022-08-26T22:10:28.015Z,99.90
2022-08-26T22:13:00.480Z,99.90
2022-08-26T22:15:35.288Z,99.90
2022-08-26T22:18:09.079Z,99.90
2022-08-26T22:20:41.384Z,99.90
2022-08-26T22:23:14.154Z,99.90
2022-08-26T22:25:46.547Z,99.90
2022-08-26T22:28:20.086Z,99.90
2022-08-26T22:30:52.335Z,99.90
2022-08-26T22:33:24.994Z,99.90
2022-08-26T22:35:56.873Z,99.90
2022-08-26T22:38:29.351Z,99.90
2022-08-26T22:41:03.438Z,99.90
2022-08-26T22:43:39.121Z,99.90
2022-08-26T22:46:15.838Z,99.90
2022-08-26T22:48:50.319Z,99.90
2022-08-26T22:51:26.635Z,99.90
2022-08-26T22:53:59.361Z,99.90
2022-08-26T22:56:31.152Z,99.90
2022-08-26T22:59:05.317Z,99.90
2022-08-26T23:01:43.208Z,99.90
2022-08-26T23:04:15.669Z,99.90
2022-08-26T23:06:48.097Z,99.90
2022-08-26T23:09:20.590Z,99.90
2022-08-26T23:11:55.894Z,99.90
2022-08-26T23:14:28.385Z,99.90
2022-08-26T23:17:00.190Z,99.90
2022-08-26T23:19:32.713Z,99.90
2022-08-26T23:22:04.887Z,99.90
2022-08-26T23:24:37.304Z,99.90
2022-08-26T23:27:09.437Z,99.90
2022-08-26T23:29:42.648Z,99.90
2022-08-26T23:32:14.469Z,99.90
2022-08-26T23:35:01.878Z,99.90
2022-08-26T23:37:37.973Z,99.90
2022-08-26T23:40:16.086Z,99.90
2022-08-26T23:42:47.970Z,99.90
2022-08-26T23:45:20.681Z,99.90
2022-08-26T23:47:53.197Z,99.90
2022-08-26T23:50:49.612Z,99.90
2022-08-26T23:53:22.494Z,99.90
2022-08-26T23:55:54.917Z,99.90
2022-08-26T23:58:26.812Z,99.90
